sensor_id;sensor_type;location;lat;lon;timestamp;P1;durP1;ratioP1;P2;durP2;ratioP2
14892;SDS011;7538;53.626;9.906;2023-02-21T00:01:41;8.55;;;3.70;;
14892;SDS011;7538;53.626;9.906;2023-02-21T00:04:25;7.00;;;3.60;;
14892;SDS011;7538;53.626;9.906;2023-02-21T00:07:09;11.63;;;4.30;;
14892;SDS011;7538;53.626;9.906;2023-02-21T00:09:53;7.50;;;3.47;;
14892;SDS011;7538;53.626;9.906;2023-02-21T00:12:37;8.13;;;3.15;;
14892;SDS011;7538;53.626;9.906;2023-02-21T00:15:23;10.30;;;3.50;;
14892;SDS011;7538;53.626;9.906;2023-02-21T00:18:08;6.07;;;2.77;;
14892;SDS011;7538;53.626;9.906;2023-02-21T00:20:52;7.88;;;2.80;;
14892;SDS011;7538;53.626;9.906;2023-02-21T00:23:36;5.75;;;3.00;;
14892;SDS011;7538;53.626;9.906;2023-02-21T00:26:20;9.53;;;2.73;;
14892;SDS011;7538;53.626;9.906;2023-02-21T00:29:05;5.10;;;2.80;;
14892;SDS011;7538;53.626;9.906;2023-02-21T00:31:51;7.28;;;2.85;;
14892;SDS011;7538;53.626;9.906;2023-02-21T00:34:35;5.90;;;2.50;;
14892;SDS011;7538;53.626;9.906;2023-02-21T00:37:20;7.73;;;3.43;;
14892;SDS011;7538;53.626;9.906;2023-02-21T00:40:05;4.83;;;2.53;;
14892;SDS011;7538;53.626;9.906;2023-02-21T00:42:50;4.30;;;2.57;;
14892;SDS011;7538;53.626;9.906;2023-02-21T00:45:34;8.80;;;2.60;;
14892;SDS011;7538;53.626;9.906;2023-02-21T00:48:20;3.67;;;2.00;;
14892;SDS011;7538;53.626;9.906;2023-02-21T00:51:04;4.70;;;2.00;;
14892;SDS011;7538;53.626;9.906;2023-02-21T00:53:48;2.53;;;1.83;;
14892;SDS011;7538;53.626;9.906;2023-02-21T00:56:33;3.73;;;1.90;;
14892;SDS011;7538;53.626;9.906;2023-02-21T00:59:17;5.60;;;2.13;;
14892;SDS011;7538;53.626;9.906;2023-02-21T01:02:01;4.70;;;2.13;;
14892;SDS011;7538;53.626;9.906;2023-02-21T01:04:47;5.80;;;2.33;;
14892;SDS011;7538;53.626;9.906;2023-02-21T01:07:32;5.72;;;2.20;;
14892;SDS011;7538;53.626;9.906;2023-02-21T01:10:17;6.20;;;2.07;;
14892;SDS011;7538;53.626;9.906;2023-02-21T01:13:01;2.80;;;1.87;;
14892;SDS011;7538;53.626;9.906;2023-02-21T01:15:45;9.65;;;2.33;;
14892;SDS011;7538;53.626;9.906;2023-02-21T01:18:29;4.30;;;1.87;;
14892;SDS011;7538;53.626;9.906;2023-02-21T01:21:15;3.77;;;1.87;;
14892;SDS011;7538;53.626;9.906;2023-02-21T01:24:00;3.13;;;2.03;;
14892;SDS011;7538;53.626;9.906;2023-02-21T01:26:45;4.10;;;1.83;;
14892;SDS011;7538;53.626;9.906;2023-02-21T01:29:29;4.97;;;1.70;;
14892;SDS011;7538;53.626;9.906;2023-02-21T01:32:13;3.87;;;1.80;;
14892;SDS011;7538;53.626;9.906;2023-02-21T01:34:57;4.53;;;1.67;;
14892;SDS011;7538;53.626;9.906;2023-02-21T01:37:44;7.43;;;1.95;;
14892;SDS011;7538;53.626;9.906;2023-02-21T01:40:28;4.70;;;1.80;;
14892;SDS011;7538;53.626;9.906;2023-02-21T01:43:13;4.17;;;1.70;;
14892;SDS011;7538;53.626;9.906;2023-02-21T01:45:58;4.27;;;1.90;;
14892;SDS011;7538;53.626;9.906;2023-02-21T01:48:43;2.20;;;1.63;;
14892;SDS011;7538;53.626;9.906;2023-02-21T01:51:30;5.70;;;1.73;;
14892;SDS011;7538;53.626;9.906;2023-02-21T01:54:18;2.10;;;1.50;;
14892;SDS011;7538;53.626;9.906;2023-02-21T01:57:04;3.33;;;1.87;;
14892;SDS011;7538;53.626;9.906;2023-02-21T01:59:50;7.40;;;1.90;;
14892;SDS011;7538;53.626;9.906;2023-02-21T02:02:40;5.40;;;2.10;;
14892;SDS011;7538;53.626;9.906;2023-02-21T02:05:32;4.00;;;2.00;;
14892;SDS011;7538;53.626;9.906;2023-02-21T02:08:17;4.53;;;2.08;;
14892;SDS011;7538;53.626;9.906;2023-02-21T02:11:09;2.73;;;1.60;;
14892;SDS011;7538;53.626;9.906;2023-02-21T02:14:11;5.53;;;2.20;;
14892;SDS011;7538;53.626;9.906;2023-02-21T02:16:50;4.63;;;2.13;;
14892;SDS011;7538;53.626;9.906;2023-02-21T02:19:40;4.53;;;2.10;;
14892;SDS011;7538;53.626;9.906;2023-02-21T02:22:35;6.10;;;2.07;;
14892;SDS011;7538;53.626;9.906;2023-02-21T02:25:18;5.73;;;2.10;;
14892;SDS011;7538;53.626;9.906;2023-02-21T02:28:13;5.10;;;2.30;;
14892;SDS011;7538;53.626;9.906;2023-02-21T02:31:05;2.90;;;1.87;;
14892;SDS011;7538;53.626;9.906;2023-02-21T02:34:04;2.97;;;1.80;;
14892;SDS011;7538;53.626;9.906;2023-02-21T02:36:53;4.37;;;2.20;;
14892;SDS011;7538;53.626;9.906;2023-02-21T02:39:28;5.90;;;1.93;;
14892;SDS011;7538;53.626;9.906;2023-02-21T02:42:05;5.60;;;2.00;;
14892;SDS011;7538;53.626;9.906;2023-02-21T02:44:41;5.75;;;1.92;;
14892;SDS011;7538;53.626;9.906;2023-02-21T02:47:12;3.57;;;1.80;;
14892;SDS011;7538;53.626;9.906;2023-02-21T02:49:44;5.77;;;1.83;;
14892;SDS011;7538;53.626;9.906;2023-02-21T02:52:14;3.77;;;1.50;;
14892;SDS011;7538;53.626;9.906;2023-02-21T02:54:41;4.60;;;1.50;;
14892;SDS011;7538;53.626;9.906;2023-02-21T02:57:08;2.03;;;1.40;;
14892;SDS011;7538;53.626;9.906;2023-02-21T02:59:37;2.85;;;1.70;;
14892;SDS011;7538;53.626;9.906;2023-02-21T03:02:22;6.73;;;1.83;;
14892;SDS011;7538;53.626;9.906;2023-02-21T03:05:06;3.93;;;1.80;;
14892;SDS011;7538;53.626;9.906;2023-02-21T03:07:56;5.23;;;1.73;;
14892;SDS011;7538;53.626;9.906;2023-02-21T03:10:30;2.67;;;1.77;;
14892;SDS011;7538;53.626;9.906;2023-02-21T03:13:07;3.57;;;1.67;;
14892;SDS011;7538;53.626;9.906;2023-02-21T03:15:39;3.50;;;1.87;;
14892;SDS011;7538;53.626;9.906;2023-02-21T03:18:13;4.27;;;2.00;;
14892;SDS011;7538;53.626;9.906;2023-02-21T03:20:44;5.30;;;2.10;;
14892;SDS011;7538;53.626;9.906;2023-02-21T03:23:16;3.40;;;1.70;;
14892;SDS011;7538;53.626;9.906;2023-02-21T03:25:44;4.33;;;2.67;;
14892;SDS011;7538;53.626;9.906;2023-02-21T03:28:15;4.07;;;2.30;;
14892;SDS011;7538;53.626;9.906;2023-02-21T03:30:43;4.50;;;2.80;;
14892;SDS011;7538;53.626;9.906;2023-02-21T03:33:12;4.50;;;2.57;;
14892;SDS011;7538;53.626;9.906;2023-02-21T03:35:39;4.83;;;2.87;;
14892;SDS011;7538;53.626;9.906;2023-02-21T03:38:07;4.87;;;2.60;;
14892;SDS011;7538;53.626;9.906;2023-02-21T03:40:37;6.70;;;3.00;;
14892;SDS011;7538;53.626;9.906;2023-02-21T03:43:04;7.90;;;2.90;;
14892;SDS011;7538;53.626;9.906;2023-02-21T03:45:31;5.47;;;3.28;;
14892;SDS011;7538;53.626;9.906;2023-02-21T03:47:58;7.20;;;3.07;;
14892;SDS011;7538;53.626;9.906;2023-02-21T03:50:25;4.87;;;3.40;;
14892;SDS011;7538;53.626;9.906;2023-02-21T03:52:52;7.07;;;3.65;;
14892;SDS011;7538;53.626;9.906;2023-02-21T03:55:19;5.40;;;3.40;;
14892;SDS011;7538;53.626;9.906;2023-02-21T03:57:48;4.82;;;3.47;;
14892;SDS011;7538;53.626;9.906;2023-02-21T04:00:15;10.13;;;3.83;;
14892;SDS011;7538;53.626;9.906;2023-02-21T04:02:42;5.10;;;3.30;;
14892;SDS011;7538;53.626;9.906;2023-02-21T04:05:09;7.90;;;4.50;;
14892;SDS011;7538;53.626;9.906;2023-02-21T04:07:36;7.70;;;4.22;;
14892;SDS011;7538;53.626;9.906;2023-02-21T04:10:03;7.82;;;4.38;;
14892;SDS011;7538;53.626;9.906;2023-02-21T04:12:30;7.10;;;3.40;;
14892;SDS011;7538;53.626;9.906;2023-02-21T04:14:58;9.57;;;4.40;;
14892;SDS011;7538;53.626;9.906;2023-02-21T04:17:25;6.87;;;3.67;;
14892;SDS011;7538;53.626;9.906;2023-02-21T04:19:52;8.13;;;4.43;;
14892;SDS011;7538;53.626;9.906;2023-02-21T04:22:18;11.40;;;4.60;;
14892;SDS011;7538;53.626;9.906;2023-02-21T04:24:46;8.90;;;4.63;;
14892;SDS011;7538;53.626;9.906;2023-02-21T04:27:13;7.65;;;3.80;;
14892;SDS011;7538;53.626;9.906;2023-02-21T04:29:40;14.10;;;4.77;;
14892;SDS011;7538;53.626;9.906;2023-02-21T04:32:08;9.17;;;4.30;;
14892;SDS011;7538;53.626;9.906;2023-02-21T04:34:36;10.80;;;3.93;;
14892;SDS011;7538;53.626;9.906;2023-02-21T04:37:03;9.30;;;3.33;;
14892;SDS011;7538;53.626;9.906;2023-02-21T04:39:29;9.75;;;2.67;;
14892;SDS011;7538;53.626;9.906;2023-02-21T04:41:56;10.87;;;2.83;;
14892;SDS011;7538;53.626;9.906;2023-02-21T04:44:23;16.27;;;3.40;;
14892;SDS011;7538;53.626;9.906;2023-02-21T04:46:50;16.33;;;3.50;;
14892;SDS011;7538;53.626;9.906;2023-02-21T04:49:18;11.50;;;3.10;;
14892;SDS011;7538;53.626;9.906;2023-02-21T04:51:45;13.80;;;2.70;;
14892;SDS011;7538;53.626;9.906;2023-02-21T04:54:12;12.40;;;2.60;;
14892;SDS011;7538;53.626;9.906;2023-02-21T04:56:38;11.03;;;2.83;;
14892;SDS011;7538;53.626;9.906;2023-02-21T04:59:05;17.73;;;3.13;;
14892;SDS011;7538;53.626;9.906;2023-02-21T05:01:32;18.23;;;3.57;;
14892;SDS011;7538;53.626;9.906;2023-02-21T05:03:59;9.17;;;3.23;;
14892;SDS011;7538;53.626;9.906;2023-02-21T05:06:28;10.57;;;3.00;;
14892;SDS011;7538;53.626;9.906;2023-02-21T05:08:56;13.43;;;2.93;;
14892;SDS011;7538;53.626;9.906;2023-02-21T05:11:23;16.00;;;3.53;;
14892;SDS011;7538;53.626;9.906;2023-02-21T05:13:50;13.73;;;2.97;;
14892;SDS011;7538;53.626;9.906;2023-02-21T05:16:18;8.30;;;2.83;;
14892;SDS011;7538;53.626;9.906;2023-02-21T05:18:45;19.58;;;3.53;;
14892;SDS011;7538;53.626;9.906;2023-02-21T05:21:13;21.47;;;4.03;;
14892;SDS011;7538;53.626;9.906;2023-02-21T05:23:42;17.57;;;3.17;;
14892;SDS011;7538;53.626;9.906;2023-02-21T05:26:20;24.67;;;4.87;;
14892;SDS011;7538;53.626;9.906;2023-02-21T05:28:48;18.37;;;3.40;;
14892;SDS011;7538;53.626;9.906;2023-02-21T05:31:16;22.83;;;4.00;;
14892;SDS011;7538;53.626;9.906;2023-02-21T05:33:43;19.17;;;4.47;;
14892;SDS011;7538;53.626;9.906;2023-02-21T05:36:10;18.23;;;3.17;;
14892;SDS011;7538;53.626;9.906;2023-02-21T05:38:44;16.30;;;3.77;;
14892;SDS011;7538;53.626;9.906;2023-02-21T05:41:12;12.73;;;3.57;;
14892;SDS011;7538;53.626;9.906;2023-02-21T05:43:41;16.77;;;4.03;;
14892;SDS011;7538;53.626;9.906;2023-02-21T05:46:14;11.17;;;3.23;;
14892;SDS011;7538;53.626;9.906;2023-02-21T05:48:45;11.87;;;3.40;;
14892;SDS011;7538;53.626;9.906;2023-02-21T05:51:12;19.60;;;4.10;;
14892;SDS011;7538;53.626;9.906;2023-02-21T05:53:39;13.17;;;2.93;;
14892;SDS011;7538;53.626;9.906;2023-02-21T05:56:07;15.27;;;3.60;;
14892;SDS011;7538;53.626;9.906;2023-02-21T05:58:34;19.37;;;4.20;;
14892;SDS011;7538;53.626;9.906;2023-02-21T06:01:01;18.48;;;3.75;;
14892;SDS011;7538;53.626;9.906;2023-02-21T06:03:28;20.23;;;4.03;;
14892;SDS011;7538;53.626;9.906;2023-02-21T06:05:55;13.70;;;3.33;;
14892;SDS011;7538;53.626;9.906;2023-02-21T06:08:22;15.33;;;3.80;;
14892;SDS011;7538;53.626;9.906;2023-02-21T06:10:49;19.00;;;3.93;;
14892;SDS011;7538;53.626;9.906;2023-02-21T06:13:17;18.70;;;3.63;;
14892;SDS011;7538;53.626;9.906;2023-02-21T06:15:44;21.67;;;4.83;;
14892;SDS011;7538;53.626;9.906;2023-02-21T06:18:11;31.40;;;4.70;;
14892;SDS011;7538;53.626;9.906;2023-02-21T06:20:39;28.33;;;5.67;;
14892;SDS011;7538;53.626;9.906;2023-02-21T06:23:05;16.60;;;4.27;;
14892;SDS011;7538;53.626;9.906;2023-02-21T06:25:32;17.97;;;4.13;;
14892;SDS011;7538;53.626;9.906;2023-02-21T06:27:59;20.33;;;4.23;;
14892;SDS011;7538;53.626;9.906;2023-02-21T06:30:27;22.57;;;4.80;;
14892;SDS011;7538;53.626;9.906;2023-02-21T06:32:54;15.80;;;3.97;;
14892;SDS011;7538;53.626;9.906;2023-02-21T06:35:21;16.77;;;3.63;;
14892;SDS011;7538;53.626;9.906;2023-02-21T06:37:47;18.50;;;3.80;;
14892;SDS011;7538;53.626;9.906;2023-02-21T06:40:14;18.50;;;4.33;;
14892;SDS011;7538;53.626;9.906;2023-02-21T06:42:41;18.37;;;4.20;;
14892;SDS011;7538;53.626;9.906;2023-02-21T06:45:08;20.87;;;4.60;;
14892;SDS011;7538;53.626;9.906;2023-02-21T06:47:36;23.20;;;5.07;;
14892;SDS011;7538;53.626;9.906;2023-02-21T06:50:03;20.33;;;4.30;;
14892;SDS011;7538;53.626;9.906;2023-02-21T06:52:31;16.33;;;3.37;;
14892;SDS011;7538;53.626;9.906;2023-02-21T06:54:57;23.83;;;4.00;;
14892;SDS011;7538;53.626;9.906;2023-02-21T06:57:24;20.60;;;4.53;;
14892;SDS011;7538;53.626;9.906;2023-02-21T06:59:51;20.27;;;4.63;;
14892;SDS011;7538;53.626;9.906;2023-02-21T07:02:18;19.53;;;3.97;;
14892;SDS011;7538;53.626;9.906;2023-02-21T07:04:46;28.10;;;4.13;;
14892;SDS011;7538;53.626;9.906;2023-02-21T07:07:13;20.10;;;4.17;;
14892;SDS011;7538;53.626;9.906;2023-02-21T07:09:40;22.20;;;4.77;;
14892;SDS011;7538;53.626;9.906;2023-02-21T07:12:07;18.67;;;4.70;;
14892;SDS011;7538;53.626;9.906;2023-02-21T07:14:34;16.13;;;4.23;;
14892;SDS011;7538;53.626;9.906;2023-02-21T07:17:01;25.03;;;5.23;;
14892;SDS011;7538;53.626;9.906;2023-02-21T07:19:28;18.67;;;4.20;;
14892;SDS011;7538;53.626;9.906;2023-02-21T07:21:56;13.63;;;3.70;;
14892;SDS011;7538;53.626;9.906;2023-02-21T07:24:23;20.27;;;4.60;;
14892;SDS011;7538;53.626;9.906;2023-02-21T07:26:49;19.60;;;4.10;;
14892;SDS011;7538;53.626;9.906;2023-02-21T07:29:16;17.73;;;4.20;;
14892;SDS011;7538;53.626;9.906;2023-02-21T07:31:43;18.07;;;4.47;;
14892;SDS011;7538;53.626;9.906;2023-02-21T07:34:10;14.73;;;4.13;;
14892;SDS011;7538;53.626;9.906;2023-02-21T07:36:37;20.92;;;4.03;;
14892;SDS011;7538;53.626;9.906;2023-02-21T07:39:05;16.50;;;4.77;;
14892;SDS011;7538;53.626;9.906;2023-02-21T07:41:32;12.97;;;3.83;;
14892;SDS011;7538;53.626;9.906;2023-02-21T07:43:59;11.10;;;3.43;;
14892;SDS011;7538;53.626;9.906;2023-02-21T07:46:26;19.17;;;4.70;;
14892;SDS011;7538;53.626;9.906;2023-02-21T07:48:53;21.47;;;4.70;;
14892;SDS011;7538;53.626;9.906;2023-02-21T07:51:21;13.38;;;4.18;;
14892;SDS011;7538;53.626;9.906;2023-02-21T07:53:47;12.80;;;4.27;;
14892;SDS011;7538;53.626;9.906;2023-02-21T07:56:16;17.83;;;4.13;;
14892;SDS011;7538;53.626;9.906;2023-02-21T07:58:42;16.55;;;3.78;;
14892;SDS011;7538;53.626;9.906;2023-02-21T08:01:09;19.08;;;4.45;;
14892;SDS011;7538;53.626;9.906;2023-02-21T08:03:36;23.67;;;4.83;;
14892;SDS011;7538;53.626;9.906;2023-02-21T08:06:04;20.02;;;4.70;;
14892;SDS011;7538;53.626;9.906;2023-02-21T08:08:33;17.05;;;3.80;;
14892;SDS011;7538;53.626;9.906;2023-02-21T08:11:00;16.50;;;4.38;;
14892;SDS011;7538;53.626;9.906;2023-02-21T08:13:28;18.10;;;3.85;;
14892;SDS011;7538;53.626;9.906;2023-02-21T08:15:55;13.88;;;3.60;;
14892;SDS011;7538;53.626;9.906;2023-02-21T08:18:22;14.20;;;3.47;;
14892;SDS011;7538;53.626;9.906;2023-02-21T08:20:49;11.48;;;3.70;;
14892;SDS011;7538;53.626;9.906;2023-02-21T08:23:16;13.02;;;3.30;;
14892;SDS011;7538;53.626;9.906;2023-02-21T08:25:43;9.48;;;3.30;;
14892;SDS011;7538;53.626;9.906;2023-02-21T08:28:10;13.88;;;3.47;;
14892;SDS011;7538;53.626;9.906;2023-02-21T08:30:39;11.40;;;3.50;;
14892;SDS011;7538;53.626;9.906;2023-02-21T08:33:06;18.73;;;4.47;;
14892;SDS011;7538;53.626;9.906;2023-02-21T08:35:33;13.77;;;4.20;;
14892;SDS011;7538;53.626;9.906;2023-02-21T08:38:00;10.90;;;3.60;;
14892;SDS011;7538;53.626;9.906;2023-02-21T08:40:28;15.77;;;3.50;;
14892;SDS011;7538;53.626;9.906;2023-02-21T08:42:56;11.70;;;3.95;;
14892;SDS011;7538;53.626;9.906;2023-02-21T08:45:24;14.02;;;3.58;;
14892;SDS011;7538;53.626;9.906;2023-02-21T08:47:53;12.10;;;3.60;;
14892;SDS011;7538;53.626;9.906;2023-02-21T08:50:21;9.48;;;3.13;;
14892;SDS011;7538;53.626;9.906;2023-02-21T08:52:49;13.65;;;3.35;;
14892;SDS011;7538;53.626;9.906;2023-02-21T08:55:17;13.82;;;3.90;;
14892;SDS011;7538;53.626;9.906;2023-02-21T08:57:46;12.88;;;3.15;;
14892;SDS011;7538;53.626;9.906;2023-02-21T09:00:14;12.70;;;3.45;;
14892;SDS011;7538;53.626;9.906;2023-02-21T09:02:41;10.95;;;3.72;;
14892;SDS011;7538;53.626;9.906;2023-02-21T09:05:10;8.77;;;3.00;;
14892;SDS011;7538;53.626;9.906;2023-02-21T09:07:39;10.93;;;3.95;;
14892;SDS011;7538;53.626;9.906;2023-02-21T09:10:06;9.60;;;3.33;;
14892;SDS011;7538;53.626;9.906;2023-02-21T09:12:34;11.57;;;3.50;;
14892;SDS011;7538;53.626;9.906;2023-02-21T09:15:02;9.20;;;2.92;;
14892;SDS011;7538;53.626;9.906;2023-02-21T09:17:29;12.40;;;3.53;;
14892;SDS011;7538;53.626;9.906;2023-02-21T09:19:58;10.60;;;3.63;;
14892;SDS011;7538;53.626;9.906;2023-02-21T09:22:26;11.25;;;3.70;;
14892;SDS011;7538;53.626;9.906;2023-02-21T09:24:53;10.07;;;2.67;;
14892;SDS011;7538;53.626;9.906;2023-02-21T09:27:20;8.57;;;3.30;;
14892;SDS011;7538;53.626;9.906;2023-02-21T09:30:00;10.80;;;3.08;;
14892;SDS011;7538;53.626;9.906;2023-02-21T09:32:29;10.15;;;3.35;;
14892;SDS011;7538;53.626;9.906;2023-02-21T09:34:56;14.63;;;3.47;;
14892;SDS011;7538;53.626;9.906;2023-02-21T09:37:22;11.63;;;3.35;;
14892;SDS011;7538;53.626;9.906;2023-02-21T09:39:51;12.50;;;3.42;;
14892;SDS011;7538;53.626;9.906;2023-02-21T09:42:17;7.50;;;3.20;;
14892;SDS011;7538;53.626;9.906;2023-02-21T09:44:54;9.45;;;3.03;;
14892;SDS011;7538;53.626;9.906;2023-02-21T09:47:23;9.85;;;3.30;;
14892;SDS011;7538;53.626;9.906;2023-02-21T09:49:55;10.23;;;2.92;;
14892;SDS011;7538;53.626;9.906;2023-02-21T09:52:26;10.93;;;2.55;;
14892;SDS011;7538;53.626;9.906;2023-02-21T09:54:59;13.07;;;3.47;;
14892;SDS011;7538;53.626;9.906;2023-02-21T09:57:30;11.50;;;3.08;;
14892;SDS011;7538;53.626;9.906;2023-02-21T09:59:57;14.27;;;3.50;;
14892;SDS011;7538;53.626;9.906;2023-02-21T10:02:29;11.93;;;3.15;;
14892;SDS011;7538;53.626;9.906;2023-02-21T10:05:06;10.32;;;3.25;;
14892;SDS011;7538;53.626;9.906;2023-02-21T10:07:42;13.00;;;3.35;;
14892;SDS011;7538;53.626;9.906;2023-02-21T10:10:15;11.98;;;3.10;;
14892;SDS011;7538;53.626;9.906;2023-02-21T10:12:45;11.15;;;3.83;;
14892;SDS011;7538;53.626;9.906;2023-02-21T10:15:24;10.43;;;3.47;;
14892;SDS011;7538;53.626;9.906;2023-02-21T10:18:03;11.50;;;3.20;;
14892;SDS011;7538;53.626;9.906;2023-02-21T10:20:34;12.82;;;3.00;;
14892;SDS011;7538;53.626;9.906;2023-02-21T10:23:06;13.63;;;3.38;;
14892;SDS011;7538;53.626;9.906;2023-02-21T10:25:41;8.85;;;2.90;;
14892;SDS011;7538;53.626;9.906;2023-02-21T10:28:12;13.85;;;3.13;;
14892;SDS011;7538;53.626;9.906;2023-02-21T10:30:43;12.88;;;3.50;;
14892;SDS011;7538;53.626;9.906;2023-02-21T10:33:11;11.75;;;3.60;;
14892;SDS011;7538;53.626;9.906;2023-02-21T10:35:38;12.57;;;3.38;;
14892;SDS011;7538;53.626;9.906;2023-02-21T10:38:05;8.65;;;2.92;;
14892;SDS011;7538;53.626;9.906;2023-02-21T10:40:35;10.88;;;3.47;;
14892;SDS011;7538;53.626;9.906;2023-02-21T10:43:08;13.35;;;3.88;;
14892;SDS011;7538;53.626;9.906;2023-02-21T10:45:39;10.77;;;2.85;;
14892;SDS011;7538;53.626;9.906;2023-02-21T10:48:10;9.65;;;2.45;;
14892;SDS011;7538;53.626;9.906;2023-02-21T10:50:40;8.10;;;2.70;;
14892;SDS011;7538;53.626;9.906;2023-02-21T10:53:09;8.85;;;2.70;;
14892;SDS011;7538;53.626;9.906;2023-02-21T10:58:44;14.20;;;3.38;;
14892;SDS011;7538;53.626;9.906;2023-02-21T11:01:13;8.25;;;2.88;;
14892;SDS011;7538;53.626;9.906;2023-02-21T11:03:43;10.32;;;2.80;;
14892;SDS011;7538;53.626;9.906;2023-02-21T11:06:20;10.18;;;2.90;;
14892;SDS011;7538;53.626;9.906;2023-02-21T11:08:50;11.77;;;3.35;;
14892;SDS011;7538;53.626;9.906;2023-02-21T11:11:25;8.65;;;2.58;;
14892;SDS011;7538;53.626;9.906;2023-02-21T11:17:03;8.73;;;2.97;;
14892;SDS011;7538;53.626;9.906;2023-02-21T11:19:40;9.05;;;2.83;;
14892;SDS011;7538;53.626;9.906;2023-02-21T11:22:08;8.40;;;2.50;;
14892;SDS011;7538;53.626;9.906;2023-02-21T11:24:43;6.65;;;2.53;;
14892;SDS011;7538;53.626;9.906;2023-02-21T11:27:12;9.20;;;2.65;;
14892;SDS011;7538;53.626;9.906;2023-02-21T11:29:41;7.72;;;2.80;;
14892;SDS011;7538;53.626;9.906;2023-02-21T11:32:26;12.98;;;2.90;;
14892;SDS011;7538;53.626;9.906;2023-02-21T11:35:00;8.10;;;2.60;;
14892;SDS011;7538;53.626;9.906;2023-02-21T11:37:29;8.63;;;2.25;;
14892;SDS011;7538;53.626;9.906;2023-02-21T11:39:57;7.68;;;2.40;;
14892;SDS011;7538;53.626;9.906;2023-02-21T11:42:26;11.68;;;3.03;;
14892;SDS011;7538;53.626;9.906;2023-02-21T11:45:05;11.77;;;3.38;;
14892;SDS011;7538;53.626;9.906;2023-02-21T11:47:42;6.43;;;2.30;;
14892;SDS011;7538;53.626;9.906;2023-02-21T11:50:14;8.88;;;2.60;;
14892;SDS011;7538;53.626;9.906;2023-02-21T11:52:48;8.80;;;3.03;;
14892;SDS011;7538;53.626;9.906;2023-02-21T11:55:22;8.25;;;2.30;;
14892;SDS011;7538;53.626;9.906;2023-02-21T11:57:52;7.40;;;2.33;;
14892;SDS011;7538;53.626;9.906;2023-02-21T12:00:28;8.57;;;2.20;;
14892;SDS011;7538;53.626;9.906;2023-02-21T12:03:09;8.40;;;2.30;;
14892;SDS011;7538;53.626;9.906;2023-02-21T12:05:50;9.52;;;2.83;;
14892;SDS011;7538;53.626;9.906;2023-02-21T12:08:33;12.38;;;2.75;;
14892;SDS011;7538;53.626;9.906;2023-02-21T12:11:15;5.75;;;2.08;;
14892;SDS011;7538;53.626;9.906;2023-02-21T12:14:14;7.82;;;2.17;;
14892;SDS011;7538;53.626;9.906;2023-02-21T12:16:53;9.85;;;2.22;;
14892;SDS011;7538;53.626;9.906;2023-02-21T12:19:32;4.90;;;2.00;;
14892;SDS011;7538;53.626;9.906;2023-02-21T12:22:22;8.20;;;2.42;;
14892;SDS011;7538;53.626;9.906;2023-02-21T12:25:03;7.47;;;2.38;;
14892;SDS011;7538;53.626;9.906;2023-02-21T12:27:40;5.82;;;1.95;;
14892;SDS011;7538;53.626;9.906;2023-02-21T12:30:20;10.57;;;2.30;;
14892;SDS011;7538;53.626;9.906;2023-02-21T12:33:04;5.93;;;1.80;;
14892;SDS011;7538;53.626;9.906;2023-02-21T12:35:51;5.57;;;1.98;;
14892;SDS011;7538;53.626;9.906;2023-02-21T12:38:41;5.63;;;1.83;;
14892;SDS011;7538;53.626;9.906;2023-02-21T12:41:19;7.90;;;1.60;;
14892;SDS011;7538;53.626;9.906;2023-02-21T12:43:57;5.50;;;1.98;;
14892;SDS011;7538;53.626;9.906;2023-02-21T12:46:30;5.57;;;2.15;;
14892;SDS011;7538;53.626;9.906;2023-02-21T12:49:03;6.43;;;2.22;;
14892;SDS011;7538;53.626;9.906;2023-02-21T12:51:32;7.15;;;2.10;;
14892;SDS011;7538;53.626;9.906;2023-02-21T12:54:04;6.88;;;1.98;;
14892;SDS011;7538;53.626;9.906;2023-02-21T12:56:37;4.82;;;2.10;;
14892;SDS011;7538;53.626;9.906;2023-02-21T12:59:10;7.65;;;2.90;;
14892;SDS011;7538;53.626;9.906;2023-02-21T13:01:42;8.52;;;2.88;;
14892;SDS011;7538;53.626;9.906;2023-02-21T13:04:17;8.52;;;3.03;;
14892;SDS011;7538;53.626;9.906;2023-02-21T13:06:51;6.65;;;2.20;;
14892;SDS011;7538;53.626;9.906;2023-02-21T13:09:27;6.28;;;2.30;;
14892;SDS011;7538;53.626;9.906;2023-02-21T13:12:00;5.32;;;2.50;;
14892;SDS011;7538;53.626;9.906;2023-02-21T13:14:34;6.68;;;2.10;;
14892;SDS011;7538;53.626;9.906;2023-02-21T13:17:08;8.38;;;2.30;;
14892;SDS011;7538;53.626;9.906;2023-02-21T13:19:41;8.50;;;3.28;;
14892;SDS011;7538;53.626;9.906;2023-02-21T13:25:35;8.20;;;2.75;;
14892;SDS011;7538;53.626;9.906;2023-02-21T13:28:16;11.10;;;2.78;;
14892;SDS011;7538;53.626;9.906;2023-02-21T13:30:45;6.88;;;2.63;;
14892;SDS011;7538;53.626;9.906;2023-02-21T13:33:23;9.82;;;3.05;;
14892;SDS011;7538;53.626;9.906;2023-02-21T13:35:56;9.43;;;2.50;;
14892;SDS011;7538;53.626;9.906;2023-02-21T13:38:25;7.15;;;2.50;;
14892;SDS011;7538;53.626;9.906;2023-02-21T13:41:01;9.70;;;2.83;;
14892;SDS011;7538;53.626;9.906;2023-02-21T13:43:32;6.53;;;2.33;;
14892;SDS011;7538;53.626;9.906;2023-02-21T13:52:27;6.05;;;2.13;;
14892;SDS011;7538;53.626;9.906;2023-02-21T13:55:21;7.05;;;2.25;;
14892;SDS011;7538;53.626;9.906;2023-02-21T13:57:50;8.90;;;2.45;;
14892;SDS011;7538;53.626;9.906;2023-02-21T14:00:45;4.13;;;2.00;;
14892;SDS011;7538;53.626;9.906;2023-02-21T14:03:31;8.07;;;2.17;;
14892;SDS011;7538;53.626;9.906;2023-02-21T14:08:53;6.60;;;1.90;;
14892;SDS011;7538;53.626;9.906;2023-02-21T14:11:23;7.97;;;2.25;;
14892;SDS011;7538;53.626;9.906;2023-02-21T14:13:53;7.00;;;2.08;;
14892;SDS011;7538;53.626;9.906;2023-02-21T14:16:22;6.10;;;1.60;;
14892;SDS011;7538;53.626;9.906;2023-02-21T14:18:51;6.78;;;2.17;;
14892;SDS011;7538;53.626;9.906;2023-02-21T14:21:21;3.58;;;1.70;;
14892;SDS011;7538;53.626;9.906;2023-02-21T14:23:54;3.55;;;1.48;;
14892;SDS011;7538;53.626;9.906;2023-02-21T14:26:33;7.13;;;1.95;;
14892;SDS011;7538;53.626;9.906;2023-02-21T14:29:12;6.10;;;1.90;;
14892;SDS011;7538;53.626;9.906;2023-02-21T14:31:55;5.95;;;2.30;;
14892;SDS011;7538;53.626;9.906;2023-02-21T14:34:41;7.65;;;2.17;;
14892;SDS011;7538;53.626;9.906;2023-02-21T14:37:18;4.65;;;1.85;;
14892;SDS011;7538;53.626;9.906;2023-02-21T14:39:51;5.57;;;1.50;;
14892;SDS011;7538;53.626;9.906;2023-02-21T14:42:24;5.93;;;2.42;;
14892;SDS011;7538;53.626;9.906;2023-02-21T14:45:19;5.78;;;2.05;;
14892;SDS011;7538;53.626;9.906;2023-02-21T14:48:37;3.60;;;1.80;;
14892;SDS011;7538;53.626;9.906;2023-02-21T14:51:34;5.57;;;1.63;;
14892;SDS011;7538;53.626;9.906;2023-02-21T14:57:41;4.05;;;2.13;;
14892;SDS011;7538;53.626;9.906;2023-02-21T15:00:32;3.05;;;1.30;;
14892;SDS011;7538;53.626;9.906;2023-02-21T15:03:07;5.38;;;1.80;;
14892;SDS011;7538;53.626;9.906;2023-02-21T15:05:41;4.10;;;1.58;;
14892;SDS011;7538;53.626;9.906;2023-02-21T15:08:13;8.52;;;1.90;;
14892;SDS011;7538;53.626;9.906;2023-02-21T15:10:44;4.22;;;1.80;;
14892;SDS011;7538;53.626;9.906;2023-02-21T15:13:19;7.18;;;2.17;;
14892;SDS011;7538;53.626;9.906;2023-02-21T15:15:53;4.63;;;1.67;;
14892;SDS011;7538;53.626;9.906;2023-02-21T15:18:23;5.53;;;1.52;;
14892;SDS011;7538;53.626;9.906;2023-02-21T15:21:00;5.68;;;2.17;;
14892;SDS011;7538;53.626;9.906;2023-02-21T15:23:29;6.70;;;1.98;;
14892;SDS011;7538;53.626;9.906;2023-02-21T15:25:58;8.20;;;2.05;;
14892;SDS011;7538;53.626;9.906;2023-02-21T15:28:28;4.55;;;1.83;;
14892;SDS011;7538;53.626;9.906;2023-02-21T15:30:57;7.10;;;1.95;;
14892;SDS011;7538;53.626;9.906;2023-02-21T15:33:26;7.18;;;1.90;;
14892;SDS011;7538;53.626;9.906;2023-02-21T15:35:55;3.15;;;1.50;;
14892;SDS011;7538;53.626;9.906;2023-02-21T15:38:27;7.82;;;2.80;;
14892;SDS011;7538;53.626;9.906;2023-02-21T15:41:00;7.60;;;2.30;;
14892;SDS011;7538;53.626;9.906;2023-02-21T15:46:20;7.95;;;2.97;;
14892;SDS011;7538;53.626;9.906;2023-02-21T15:48:50;9.70;;;2.55;;
14892;SDS011;7538;53.626;9.906;2023-02-21T15:51:19;7.78;;;2.10;;
14892;SDS011;7538;53.626;9.906;2023-02-21T15:56:37;8.60;;;2.80;;
14892;SDS011;7538;53.626;9.906;2023-02-21T15:59:11;5.80;;;2.08;;
14892;SDS011;7538;53.626;9.906;2023-02-21T16:01:42;7.88;;;2.45;;